Time;durP1;ratioP1;P1;durP2;ratioP2;P2;SDS_P1;SDS_P2;PMS_P1;PMS_P2;Temp;Humidity;BMP_temperature;BMP_pressure;BME280_temperature;BME280_humidity;BME280_pressure;Samples;Min_cycle;Max_cycle;Signal;HPM_P1;HPM_P2
2023/09/28 00:01:45;;;;;;;14.85;12.65;;;;;;;;;;5114692;28;20122;-78
2023/09/28 00:04:11;;;;;;;15.95;13.63;;;;;;;;;;5114685;28;20062;-78
2023/09/28 00:06:38;;;;;;;13.73;12.18;;;;;;;;;;5113236;28;20410;-78
2023/09/28 00:09:05;;;;;;;14.68;12.52;;;;;;;;;;5114613;28;20121;-78
2023/09/28 00:11:31;;;;;;;16.13;13.10;;;;;;;;;;5104724;28;20047;-78
2023/09/28 00:13:58;;;;;;;15.00;12.93;;;;;;;;;;5109221;28;20051;-78
2023/09/28 00:16:24;;;;;;;14.02;11.85;;;;;;;;;;5114371;28;20051;-78
2023/09/28 00:18:50;;;;;;;14.18;11.57;;;;;;;;;;5114517;28;20122;-78
2023/09/28 00:21:16;;;;;;;14.60;12.40;;;;;;;;;;5114804;28;20043;-78
2023/09/28 00:23:42;;;;;;;13.50;11.90;;;;;;;;;;5113724;28;20036;-78
2023/09/28 00:26:08;;;;;;;14.25;12.02;;;;;;;;;;5114011;28;20122;-77
2023/09/28 00:28:34;;;;;;;13.75;11.63;;;;;;;;;;5112686;28;20039;-78
2023/09/28 00:31:04;;;;;;;13.18;11.77;;;;;;;;;;5114260;28;20039;-78
2023/09/28 00:33:30;;;;;;;14.32;11.68;;;;;;;;;;5113936;28;20043;-78
2023/09/28 00:35:56;;;;;;;12.63;11.07;;;;;;;;;;5114239;28;20062;-78
2023/09/28 00:38:22;;;;;;;13.35;11.35;;;;;;;;;;5109838;28;20079;-78
2023/09/28 00:40:49;;;;;;;11.82;10.68;;;;;;;;;;5093658;28;20066;-78
2023/09/28 00:43:15;;;;;;;12.27;11.00;;;;;;;;;;5111000;28;20052;-78
2023/09/28 00:45:41;;;;;;;11.40;10.20;;;;;;;;;;5113986;28;20085;-78
2023/09/28 00:48:09;;;;;;;12.68;10.00;;;;;;;;;;5113882;28;20044;-78
2023/09/28 00:50:35;;;;;;;13.65;10.75;;;;;;;;;;5114633;28;20043;-78
2023/09/28 00:53:04;;;;;;;12.00;10.27;;;;;;;;;;5113732;28;20031;-78
2023/09/28 00:55:31;;;;;;;13.48;11.32;;;;;;;;;;5113579;28;20499;-78
2023/09/28 00:58:00;;;;;;;12.57;10.57;;;;;;;;;;5113149;28;20039;-78
2023/09/28 01:00:27;;;;;;;13.35;9.95;;;;;;;;;;5113476;28;20503;-78
2023/09/28 01:02:55;;;;;;;11.57;10.38;;;;;;;;;;5111980;28;20044;-78
2023/09/28 01:05:31;;;;;;;11.90;10.10;;;;;;;;;;5113518;28;20173;-78
2023/09/28 01:07:58;;;;;;;;;;;;;;;;;;5100664;28;20043;-78
2023/09/28 01:10:24;;;;;;;11.75;10.10;;;;;;;;;;5113348;27;19946;-78
2023/09/28 01:12:55;;;;;;;11.57;10.00;;;;;;;;;;5113324;28;20036;-78
2023/09/28 01:15:22;;;;;;;12.35;9.85;;;;;;;;;;5113124;28;20388;-78
2023/09/28 01:17:48;;;;;;;11.68;9.98;;;;;;;;;;5113543;28;20062;-78
2023/09/28 01:22:43;;;;;;;12.48;9.32;;;;;;;;;;5101835;28;20054;-78
2023/09/28 01:25:10;;;;;;;11.15;9.45;;;;;;;;;;5113058;28;20052;-78
2023/09/28 01:27:36;;;;;;;11.05;9.80;;;;;;;;;;5113146;28;20046;-78
2023/09/28 01:30:03;;;;;;;10.63;9.30;;;;;;;;;;5111659;28;20055;-78
2023/09/28 01:32:30;;;;;;;10.57;9.45;;;;;;;;;;5113076;28;20108;-78
2023/09/28 01:34:56;;;;;;;10.43;8.80;;;;;;;;;;5112467;28;20043;-78
2023/09/28 01:37:31;;;;;;;11.57;9.15;;;;;;;;;;5113270;28;20075;-78
2023/09/28 01:39:57;;;;;;;10.23;9.10;;;;;;;;;;5097761;28;20043;-78
2023/09/28 01:42:23;;;;;;;11.70;8.60;;;;;;;;;;5113220;28;20051;-78
2023/09/28 01:44:49;;;;;;;11.43;9.07;;;;;;;;;;5112767;28;20047;-78
2023/09/28 01:47:15;;;;;;;11.13;9.38;;;;;;;;;;5102546;28;20514;-78
2023/09/28 01:49:41;;;;;;;10.40;8.77;;;;;;;;;;5109656;28;20038;-77
2023/09/28 01:52:07;;;;;;;10.18;9.07;;;;;;;;;;5112929;28;20051;-78
2023/09/28 01:54:33;;;;;;;11.93;8.73;;;;;;;;;;5112861;28;20108;-78
2023/09/28 01:57:00;;;;;;;11.30;8.82;;;;;;;;;;5112710;28;20375;-78
2023/09/28 01:59:26;;;;;;;10.55;8.27;;;;;;;;;;5112566;28;20039;-78
2023/09/28 02:01:52;;;;;;;9.63;8.68;;;;;;;;;;5112668;28;20039;-78
2023/09/28 02:04:18;;;;;;;11.25;8.95;;;;;;;;;;5112812;28;20054;-78
2023/09/28 02:06:44;;;;;;;11.75;9.50;;;;;;;;;;5112995;28;20092;-78
2023/09/28 02:09:11;;;;;;;9.50;8.50;;;;;;;;;;5112804;28;20043;-78
2023/09/28 02:11:43;;;;;;;11.10;8.82;;;;;;;;;;5112691;28;20440;-78
2023/09/28 02:14:11;;;;;;;10.45;8.63;;;;;;;;;;5113057;28;20071;-78
2023/09/28 02:16:37;;;;;;;11.77;8.75;;;;;;;;;;5112750;28;20122;-78
2023/09/28 02:19:04;;;;;;;12.55;8.63;;;;;;;;;;5112398;28;20035;-78
2023/09/28 02:21:30;;;;;;;10.63;8.88;;;;;;;;;;5112751;28;20096;-78
2023/09/28 02:23:58;;;;;;;10.27;9.00;;;;;;;;;;5112141;28;20055;-77
2023/09/28 02:26:25;;;;;;;12.25;9.07;;;;;;;;;;5112654;28;20052;-77
2023/09/28 02:28:52;;;;;;;11.82;8.98;;;;;;;;;;5105844;28;20040;-78
2023/09/28 02:31:18;;;;;;;10.95;8.60;;;;;;;;;;5105605;28;20048;-78
2023/09/28 02:33:47;;;;;;;10.80;9.70;;;;;;;;;;5112331;28;20169;-78
2023/09/28 02:36:14;;;;;;;11.25;8.93;;;;;;;;;;5112423;28;20051;-78
2023/09/28 02:38:40;;;;;;;12.65;9.60;;;;;;;;;;5106304;28;20123;-78
2023/09/28 02:41:15;;;;;;;10.43;9.30;;;;;;;;;;5104894;28;20051;-77
2023/09/28 02:43:41;;;;;;;10.15;9.00;;;;;;;;;;5099478;28;20042;-77
2023/09/28 02:46:07;;;;;;;11.85;10.10;;;;;;;;;;5112601;28;20050;-77
2023/09/28 02:48:34;;;;;;;10.73;9.63;;;;;;;;;;5116358;28;20122;-78
2023/09/28 02:51:02;;;;;;;12.23;10.88;;;;;;;;;;5115886;28;20043;-78
2023/09/28 02:53:29;;;;;;;12.75;10.05;;;;;;;;;;5116104;28;20062;-77
2023/09/28 02:55:55;;;;;;;12.77;10.10;;;;;;;;;;5115863;28;20499;-78
2023/09/28 02:58:22;;;;;;;12.35;10.27;;;;;;;;;;5115815;28;20552;-78
2023/09/28 03:00:48;;;;;;;10.90;9.80;;;;;;;;;;5115612;28;20384;-78
2023/09/28 03:03:15;;;;;;;12.80;10.07;;;;;;;;;;5115554;28;20079;-78
2023/09/28 03:05:41;;;;;;;13.90;9.93;;;;;;;;;;5115832;28;20039;-78
2023/09/28 03:08:09;;;;;;;11.57;10.18;;;;;;;;;;5115331;28;20399;-77
2023/09/28 03:10:44;;;;;;;10.70;9.55;;;;;;;;;;5115438;28;20052;-78
2023/09/28 03:13:13;;;;;;;12.57;10.15;;;;;;;;;;5115360;28;20050;-78
2023/09/28 03:15:44;;;;;;;10.93;9.82;;;;;;;;;;5115623;28;20043;-77
2023/09/28 03:18:16;;;;;;;12.93;10.45;;;;;;;;;;5115559;27;20056;-78
2023/09/28 03:20:44;;;;;;;11.25;9.25;;;;;;;;;;5115285;28;20042;-78
2023/09/28 03:23:10;;;;;;;11.73;9.55;;;;;;;;;;5115367;28;20142;-78
2023/09/28 03:25:36;;;;;;;14.55;9.82;;;;;;;;;;5113955;28;20510;-78
2023/09/28 03:28:03;;;;;;;10.20;9.10;;;;;;;;;;5115075;28;20075;-78
2023/09/28 03:30:30;;;;;;;11.18;8.70;;;;;;;;;;5115416;28;20045;-78
2023/09/28 03:32:57;;;;;;;12.02;8.63;;;;;;;;;;5115361;28;20520;-77
2023/09/28 03:35:23;;;;;;;10.85;9.07;;;;;;;;;;5115011;28;20399;-78
2023/09/28 03:37:54;;;;;;;13.05;9.57;;;;;;;;;;5102781;28;20119;-77
2023/09/28 03:40:20;;;;;;;10.38;9.25;;;;;;;;;;5114681;27;20052;-78
2023/09/28 03:42:50;;;;;;;10.13;9.10;;;;;;;;;;5115353;28;20054;-78
2023/09/28 03:45:20;;;;;;;12.30;9.10;;;;;;;;;;5101605;28;20546;-77
2023/09/28 03:47:48;;;;;;;13.18;9.35;;;;;;;;;;5115193;28;20048;-77
2023/09/28 03:50:14;;;;;;;11.93;9.25;;;;;;;;;;5114902;28;20352;-77
2023/09/28 03:52:41;;;;;;;10.73;8.95;;;;;;;;;;5114533;28;20486;-77
2023/09/28 03:55:11;;;;;;;12.07;9.13;;;;;;;;;;5114932;28;20325;-77
2023/09/28 03:57:38;;;;;;;12.02;9.45;;;;;;;;;;5114597;28;20184;-78
2023/09/28 04:00:06;;;;;;;13.65;9.63;;;;;;;;;;5114747;28;20063;-77
2023/09/28 04:02:32;;;;;;;9.63;8.63;;;;;;;;;;5114657;28;20048;-77
2023/09/28 04:04:58;;;;;;;9.98;8.32;;;;;;;;;;5114878;28;20069;-77
2023/09/28 04:07:24;;;;;;;13.02;8.77;;;;;;;;;;5114726;28;20048;-77
2023/09/28 04:09:51;;;;;;;12.40;9.10;;;;;;;;;;5105493;28;20085;-77
2023/09/28 04:12:17;;;;;;;11.15;8.70;;;;;;;;;;5110168;28;20039;-77
2023/09/28 04:14:43;;;;;;;11.98;8.60;;;;;;;;;;5114776;28;20071;-77
2023/09/28 04:17:09;;;;;;;11.23;8.13;;;;;;;;;;5114571;28;20040;-77
2023/09/28 04:19:35;;;;;;;12.07;8.27;;;;;;;;;;5114585;28;20051;-77
2023/09/28 04:22:01;;;;;;;12.43;8.20;;;;;;;;;;5113872;28;20087;-77
2023/09/28 04:24:27;;;;;;;12.07;8.90;;;;;;;;;;5114434;28;20039;-78
2023/09/28 04:26:57;;;;;;;12.35;8.95;;;;;;;;;;5100934;28;20043;-78
2023/09/28 04:29:24;;;;;;;11.90;8.80;;;;;;;;;;5114554;28;20058;-77
2023/09/28 04:31:50;;;;;;;13.55;8.82;;;;;;;;;;5110664;28;20048;-77
2023/09/28 04:34:16;;;;;;;12.23;7.88;;;;;;;;;;5103349;28;20044;-78
2023/09/28 04:36:44;;;;;;;11.38;7.22;;;;;;;;;;5114133;28;20036;-78
2023/09/28 04:39:11;;;;;;;10.98;7.70;;;;;;;;;;5112548;28;20568;-77
2023/09/28 04:41:40;;;;;;;13.15;7.88;;;;;;;;;;5113747;28;20044;-77
2023/09/28 04:44:07;;;;;;;11.43;7.57;;;;;;;;;;5113824;28;20043;-78
2023/09/28 04:46:33;;;;;;;11.10;6.55;;;;;;;;;;5113706;28;20040;-77
2023/09/28 04:48:59;;;;;;;10.75;6.45;;;;;;;;;;5113671;28;20047;-77
2023/09/28 04:51:25;;;;;;;12.05;6.18;;;;;;;;;;5113994;28;20047;-77
2023/09/28 04:53:51;;;;;;;11.20;6.57;;;;;;;;;;5113900;28;20224;-77
2023/09/28 04:56:18;;;;;;;16.20;6.35;;;;;;;;;;5113612;28;20419;-77
2023/09/28 04:58:45;;;;;;;11.18;5.30;;;;;;;;;;5113498;28;20128;-77
2023/09/28 05:01:11;;;;;;;12.18;5.30;;;;;;;;;;5113720;28;20052;-77
2023/09/28 05:03:38;;;;;;;13.25;5.78;;;;;;;;;;5113298;28;20043;-77
2023/09/28 05:06:05;;;;;;;12.57;5.45;;;;;;;;;;5113564;28;20124;-77
2023/09/28 05:08:31;;;;;;;13.35;5.68;;;;;;;;;;5111990;28;20058;-77
2023/09/28 05:10:57;;;;;;;13.57;5.43;;;;;;;;;;5112486;28;20040;-77
2023/09/28 05:13:24;;;;;;;16.33;6.28;;;;;;;;;;5113295;28;20415;-77
2023/09/28 05:15:50;;;;;;;16.77;4.97;;;;;;;;;;5113183;28;20039;-78
2023/09/28 05:18:16;;;;;;;15.52;4.78;;;;;;;;;;5113156;28;20126;-77
2023/09/28 05:20:42;;;;;;;13.65;5.07;;;;;;;;;;5113104;28;20039;-77
2023/09/28 05:23:09;;;;;;;14.05;5.53;;;;;;;;;;5111995;28;20123;-77
2023/09/28 05:25:35;;;;;;;13.82;4.75;;;;;;;;;;5113428;28;20040;-77
2023/09/28 05:28:01;;;;;;;13.10;5.15;;;;;;;;;;5113156;28;20035;-77
2023/09/28 05:30:27;;;;;;;14.07;4.30;;;;;;;;;;5112668;28;20503;-77
2023/09/28 05:32:53;;;;;;;13.13;4.45;;;;;;;;;;5113139;28;20055;-77
2023/09/28 05:35:21;;;;;;;14.35;4.40;;;;;;;;;;5113083;28;20061;-77
2023/09/28 05:37:47;;;;;;;13.48;4.15;;;;;;;;;;5100496;28;20408;-77
2023/09/28 05:40:13;;;;;;;19.60;4.40;;;;;;;;;;5111390;28;20051;-77
2023/09/28 05:42:40;;;;;;;15.93;4.22;;;;;;;;;;5113050;28;20056;-77
2023/09/28 05:45:07;;;;;;;18.67;4.15;;;;;;;;;;5112731;28;20089;-77
2023/09/28 05:47:34;;;;;;;18.52;4.35;;;;;;;;;;5113274;28;20070;-77
2023/09/28 05:50:01;;;;;;;16.85;4.18;;;;;;;;;;5112865;28;20124;-77
2023/09/28 05:52:27;;;;;;;18.35;4.68;;;;;;;;;;5112868;28;20150;-77
2023/09/28 05:54:53;;;;;;;17.98;4.20;;;;;;;;;;5112567;28;20049;-77
2023/09/28 05:57:22;;;;;;;17.73;4.22;;;;;;;;;;5112546;28;20131;-77
2023/09/28 05:59:48;;;;;;;18.42;4.78;;;;;;;;;;5112329;28;20097;-77
2023/09/28 06:02:15;;;;;;;19.75;5.32;;;;;;;;;;5112643;28;20047;-78
2023/09/28 06:04:41;;;;;;;20.10;4.50;;;;;;;;;;5112314;28;20040;-77
2023/09/28 06:07:09;;;;;;;17.20;4.47;;;;;;;;;;5113126;28;20097;-78
2023/09/28 06:09:35;;;;;;;16.23;4.75;;;;;;;;;;5125511;27;20150;-77
2023/09/28 06:12:02;;;;;;;15.70;3.90;;;;;;;;;;5112548;28;20078;-77
2023/09/28 06:14:28;;;;;;;19.10;4.57;;;;;;;;;;5112357;28;20051;-77
2023/09/28 06:16:54;;;;;;;14.23;4.50;;;;;;;;;;5112569;28;20032;-77
2023/09/28 06:19:21;;;;;;;36.47;5.32;;;;;;;;;;5111005;28;20528;-78
2023/09/28 06:21:47;;;;;;;21.65;4.75;;;;;;;;;;5114091;28;20048;-78
2023/09/28 06:24:13;;;;;;;31.15;5.30;;;;;;;;;;5116598;28;20036;-78
2023/09/28 06:26:40;;;;;;;16.45;4.28;;;;;;;;;;5103219;28;20127;-77
2023/09/28 06:29:06;;;;;;;17.58;4.50;;;;;;;;;;5116138;28;20051;-78
2023/09/28 06:31:33;;;;;;;21.13;5.13;;;;;;;;;;5116208;28;20077;-78
2023/09/28 06:33:59;;;;;;;17.27;4.75;;;;;;;;;;5116577;27;20074;-78
2023/09/28 06:36:26;;;;;;;18.05;4.40;;;;;;;;;;5116776;28;20080;-77
2023/09/28 06:38:54;;;;;;;16.77;4.70;;;;;;;;;;5116112;28;20089;-78
2023/09/28 06:41:21;;;;;;;19.50;4.88;;;;;;;;;;5116026;28;20043;-78
2023/09/28 06:43:48;;;;;;;23.63;5.25;;;;;;;;;;5117355;28;20039;-77
2023/09/28 06:46:14;;;;;;;21.70;4.88;;;;;;;;;;5116118;27;20165;-77
2023/09/28 06:48:40;;;;;;;20.67;4.28;;;;;;;;;;5116363;28;20176;-78
2023/09/28 06:51:06;;;;;;;14.35;4.32;;;;;;;;;;5116376;27;20043;-78
2023/09/28 06:53:33;;;;;;;20.40;4.18;;;;;;;;;;5116378;28;20154;-78
2023/09/28 06:56:01;;;;;;;19.15;4.72;;;;;;;;;;5116156;28;20054;-78
2023/09/28 06:58:27;;;;;;;17.35;4.45;;;;;;;;;;5116235;28;20043;-78
2023/09/28 07:00:54;;;;;;;20.13;4.80;;;;;;;;;;5116508;28;20047;-78
2023/09/28 07:03:20;;;;;;;21.73;5.28;;;;;;;;;;5117376;28;20047;-78
2023/09/28 07:05:46;;;;;;;18.65;4.85;;;;;;;;;;5115814;28;20395;-78
2023/09/28 07:08:12;;;;;;;17.83;4.75;;;;;;;;;;5115956;28;20035;-78
2023/09/28 07:10:39;;;;;;;21.30;4.72;;;;;;;;;;5115693;28;20048;-78
2023/09/28 07:13:05;;;;;;;23.52;5.45;;;;;;;;;;5115856;28;20073;-78
2023/09/28 07:15:32;;;;;;;15.15;4.65;;;;;;;;;;5115403;28;20484;-78
2023/09/28 07:17:59;;;;;;;15.02;4.20;;;;;;;;;;5115883;28;20114;-78
2023/09/28 07:20:26;;;;;;;23.90;5.05;;;;;;;;;;5115481;28;20115;-78
2023/09/28 07:22:52;;;;;;;17.17;4.43;;;;;;;;;;5115691;28;20036;-78
2023/09/28 07:25:19;;;;;;;21.83;4.72;;;;;;;;;;5115740;28;20044;-78
2023/09/28 07:27:47;;;;;;;21.02;4.68;;;;;;;;;;5115681;28;20047;-77
2023/09/28 07:30:14;;;;;;;20.50;4.47;;;;;;;;;;5115377;28;20051;-78
2023/09/28 07:32:40;;;;;;;17.73;5.25;;;;;;;;;;5114315;28;20114;-78
2023/09/28 07:35:09;;;;;;;17.90;4.20;;;;;;;;;;5110932;28;20047;-78
2023/09/28 07:37:36;;;;;;;20.63;4.80;;;;;;;;;;5105438;28;20060;-78
2023/09/28 07:40:04;;;;;;;19.83;5.30;;;;;;;;;;5114838;28;20112;-77
2023/09/28 07:42:30;;;;;;;18.40;4.70;;;;;;;;;;5115427;28;20103;-78
2023/09/28 07:44:58;;;;;;;17.60;4.85;;;;;;;;;;5115079;28;20093;-78
2023/09/28 07:47:24;;;;;;;23.15;5.35;;;;;;;;;;5114833;28;20108;-78
2023/09/28 07:49:52;;;;;;;21.85;4.63;;;;;;;;;;5109874;28;20060;-78
2023/09/28 07:52:18;;;;;;;16.60;4.75;;;;;;;;;;5106602;28;20100;-78
2023/09/28 07:54:45;;;;;;;30.42;4.95;;;;;;;;;;5114933;28;20043;-78
2023/09/28 07:57:11;;;;;;;15.93;4.45;;;;;;;;;;5115157;28;20471;-78
2023/09/28 07:59:37;;;;;;;17.52;4.18;;;;;;;;;;5114744;28;20047;-78
2023/09/28 08:02:09;;;;;;;20.33;4.85;;;;;;;;;;5115122;28;20104;-78
2023/09/28 08:04:36;;;;;;;20.13;4.65;;;;;;;;;;5114635;28;20468;-78
2023/09/28 08:07:03;;;;;;;17.15;4.75;;;;;;;;;;5114802;28;20035;-78
2023/09/28 08:09:29;;;;;;;19.60;4.53;;;;;;;;;;5114715;28;20059;-78
2023/09/28 08:11:55;;;;;;;25.58;5.35;;;;;;;;;;5114603;28;20042;-78
2023/09/28 08:14:21;;;;;;;23.50;4.65;;;;;;;;;;5114462;28;20082;-78
2023/09/28 08:16:48;;;;;;;24.77;5.93;;;;;;;;;;5114884;28;20043;-78
2023/09/28 08:19:14;;;;;;;20.52;4.90;;;;;;;;;;5100938;28;20491;-78
2023/09/28 08:21:41;;;;;;;16.30;3.90;;;;;;;;;;5114088;28;20051;-78
2023/09/28 08:24:08;;;;;;;20.80;5.20;;;;;;;;;;5114554;28;20526;-78
2023/09/28 08:26:34;;;;;;;17.30;4.57;;;;;;;;;;5113885;28;20434;-78
2023/09/28 08:29:01;;;;;;;20.65;4.68;;;;;;;;;;5114114;28;20046;-78
2023/09/28 08:31:27;;;;;;;25.00;5.50;;;;;;;;;;5114036;28;20048;-78
2023/09/28 08:33:54;;;;;;;18.40;4.85;;;;;;;;;;5114237;28;20036;-78
2023/09/28 08:36:21;;;;;;;25.35;5.03;;;;;;;;;;5114101;28;20499;-78
2023/09/28 08:38:47;;;;;;;19.33;5.32;;;;;;;;;;5113754;28;20043;-78
2023/09/28 08:41:16;;;;;;;18.30;4.75;;;;;;;;;;5114074;28;20055;-78
2023/09/28 08:43:44;;;;;;;21.17;4.40;;;;;;;;;;5114093;28;20043;-78
2023/09/28 08:46:12;;;;;;;16.15;4.28;;;;;;;;;;5113830;28;20356;-78
2023/09/28 08:48:40;;;;;;;19.42;5.05;;;;;;;;;;5114216;28;20043;-78
2023/09/28 08:51:09;;;;;;;14.98;4.30;;;;;;;;;;5114015;28;20047;-78
2023/09/28 08:53:36;;;;;;;20.23;4.82;;;;;;;;;;5113788;28;20048;-78
2023/09/28 08:56:04;;;;;;;17.50;4.63;;;;;;;;;;5113825;28;20051;-78
2023/09/28 08:58:31;;;;;;;15.65;4.53;;;;;;;;;;5103511;28;20444;-78
2023/09/28 09:00:58;;;;;;;17.48;4.57;;;;;;;;;;5123438;27;20082;-78
2023/09/28 09:03:25;;;;;;;16.60;4.30;;;;;;;;;;5113529;28;20329;-78
2023/09/28 09:05:52;;;;;;;18.98;4.85;;;;;;;;;;5113422;28;20039;-78
2023/09/28 09:08:20;;;;;;;19.02;4.38;;;;;;;;;;5113537;28;20051;-78
2023/09/28 09:10:47;;;;;;;20.45;4.38;;;;;;;;;;5096105;28;20318;-78
2023/09/28 09:13:17;;;;;;;21.05;4.55;;;;;;;;;;5103627;28;20043;-78
2023/09/28 09:15:43;;;;;;;14.45;4.22;;;;;;;;;;5112881;28;20036;-78
2023/09/28 09:18:16;;;;;;;16.48;4.88;;;;;;;;;;5113207;28;20410;-78
2023/09/28 09:20:42;;;;;;;20.88;4.78;;;;;;;;;;5099563;28;20085;-78
2023/09/28 09:23:12;;;;;;;17.17;4.18;;;;;;;;;;5113138;28;20587;-78
2023/09/28 09:25:42;;;;;;;23.48;5.15;;;;;;;;;;5105850;28;20047;-78
2023/09/28 09:28:08;;;;;;;18.63;4.20;;;;;;;;;;5105823;28;20474;-78
2023/09/28 09:30:37;;;;;;;14.60;4.25;;;;;;;;;;5106548;28;20039;-78
2023/09/28 09:33:14;;;;;;;15.45;4.28;;;;;;;;;;5106696;28;20079;-78
2023/09/28 09:35:40;;;;;;;14.70;4.03;;;;;;;;;;5100990;28;20039;-78
2023/09/28 09:38:06;;;;;;;14.27;3.88;;;;;;;;;;5112814;28;20493;-78
2023/09/28 09:40:32;;;;;;;16.60;4.57;;;;;;;;;;5113007;28;20048;-78
2023/09/28 09:43:08;;;;;;;16.65;4.15;;;;;;;;;;5112775;28;20449;-78
2023/09/28 09:45:37;;;;;;;19.10;4.70;;;;;;;;;;5113208;28;20122;-78
2023/09/28 09:48:05;;;;;;;19.65;4.72;;;;;;;;;;5113045;28;20081;-78
2023/09/28 09:50:32;;;;;;;25.27;5.70;;;;;;;;;;5112963;28;20063;-78
2023/09/28 09:52:58;;;;;;;23.45;5.43;;;;;;;;;;5112784;28;20081;-78
2023/09/28 09:55:25;;;;;;;19.83;5.57;;;;;;;;;;5113249;28;20099;-78
2023/09/28 09:57:53;;;;;;;15.38;4.07;;;;;;;;;;5112748;28;20036;-78
2023/09/28 10:00:22;;;;;;;20.27;4.88;;;;;;;;;;5112837;28;20051;-78
2023/09/28 10:02:52;;;;;;;19.17;4.72;;;;;;;;;;5112902;28;20096;-78
2023/09/28 10:05:21;;;;;;;16.90;4.57;;;;;;;;;;5113099;28;20062;-78
2023/09/28 10:07:48;;;;;;;17.80;4.60;;;;;;;;;;5099232;28;20044;-78
2023/09/28 10:10:18;;;;;;;15.02;4.13;;;;;;;;;;5112610;28;20097;-78
2023/09/28 10:12:45;;;;;;;17.30;4.03;;;;;;;;;;5100555;28;20043;-78
2023/09/28 10:15:13;;;;;;;18.05;4.80;;;;;;;;;;5099110;28;20136;-78
2023/09/28 10:17:40;;;;;;;12.35;3.97;;;;;;;;;;5112750;28;20122;-78
2023/09/28 10:20:07;;;;;;;26.42;3.97;;;;;;;;;;5112454;28;20044;-78
2023/09/28 10:22:33;;;;;;;15.18;4.10;;;;;;;;;;5112811;28;20044;-77
2023/09/28 10:24:59;;;;;;;14.68;4.40;;;;;;;;;;5098838;28;20403;-78
2023/09/28 10:27:25;;;;;;;17.17;4.82;;;;;;;;;;5112517;28;20483;-78
2023/09/28 10:30:11;;;;;;;12.35;4.20;;;;;;;;;;5112617;28;20044;-78
2023/09/28 10:32:40;;;;;;;17.95;4.82;;;;;;;;;;5112609;28;20465;-78
2023/09/28 10:35:13;;;;;;;15.00;4.50;;;;;;;;;;5112771;28;20109;-78
2023/09/28 10:37:39;;;;;;;12.75;4.45;;;;;;;;;;5112896;28;20054;-78
2023/09/28 10:40:06;;;;;;;10.20;3.60;;;;;;;;;;5107593;28;20056;-78
2023/09/28 10:42:34;;;;;;;10.90;3.70;;;;;;;;;;5103539;28;20039;-78
2023/09/28 10:45:01;;;;;;;17.80;4.55;;;;;;;;;;5112519;28;20040;-78
2023/09/28 10:47:30;;;;;;;14.73;3.80;;;;;;;;;;5110931;28;20491;-78
2023/09/28 10:50:00;;;;;;;14.43;4.10;;;;;;;;;;5112521;28;20048;-78
2023/09/28 10:52:26;;;;;;;14.05;4.18;;;;;;;;;;5112869;28;20039;-78
2023/09/28 10:54:52;;;;;;;18.33;4.88;;;;;;;;;;5112259;28;20040;-78
2023/09/28 10:57:19;;;;;;;10.00;3.28;;;;;;;;;;5111413;28;20515;-78
2023/09/28 10:59:45;;;;;;;13.02;3.60;;;;;;;;;;5105911;28;20417;-78
2023/09/28 11:02:12;;;;;;;14.30;4.07;;;;;;;;;;5105106;28;20054;-78
2023/09/28 11:04:39;;;;;;;11.68;3.20;;;;;;;;;;5099023;28;20090;-78
2023/09/28 11:07:08;;;;;;;13.25;4.10;;;;;;;;;;5112587;28;20061;-78
2023/09/28 11:09:37;;;;;;;14.50;4.22;;;;;;;;;;5094918;28;20146;-78
2023/09/28 11:12:09;;;;;;;17.35;4.10;;;;;;;;;;5109866;28;20071;-78
2023/09/28 11:14:36;;;;;;;15.25;3.90;;;;;;;;;;5115492;28;20043;-78
2023/09/28 11:17:03;;;;;;;15.20;4.00;;;;;;;;;;5114977;27;20050;-78
2023/09/28 11:19:29;;;;;;;15.57;3.72;;;;;;;;;;5103635;28;20043;-78
2023/09/28 11:21:55;;;;;;;18.27;4.43;;;;;;;;;;5115674;28;20445;-77
2023/09/28 11:24:21;;;;;;;16.02;3.42;;;;;;;;;;5116117;28;20073;-78
2023/09/28 11:26:48;;;;;;;8.50;3.38;;;;;;;;;;5115410;28;20051;-78
2023/09/28 11:29:14;;;;;;;13.75;2.92;;;;;;;;;;5115592;28;20052;-78
2023/09/28 11:31:50;;;;;;;13.55;3.97;;;;;;;;;;5102099;28;20090;-78
2023/09/28 11:34:27;;;;;;;13.57;3.78;;;;;;;;;;5116025;28;20043;-78
2023/09/28 11:36:55;;;;;;;10.77;3.17;;;;;;;;;;5115724;28;20086;-78
2023/09/28 11:39:21;;;;;;;10.57;2.90;;;;;;;;;;5115204;28;20130;-78
2023/09/28 11:42:00;;;;;;;9.50;3.20;;;;;;;;;;5110671;28;20051;-78
2023/09/28 11:44:27;;;;;;;12.82;3.45;;;;;;;;;;5108684;28;20050;-78
2023/09/28 11:46:53;;;;;;;9.82;3.05;;;;;;;;;;5107624;28;20032;-78
2023/09/28 11:49:24;;;;;;;11.65;3.50;;;;;;;;;;5108948;28;20043;-78
2023/09/28 11:51:53;;;;;;;11.00;3.70;;;;;;;;;;5115727;28;20035;-78
2023/09/28 11:54:20;;;;;;;9.77;3.10;;;;;;;;;;5114871;28;20044;-78
2023/09/28 11:56:46;;;;;;;9.50;3.08;;;;;;;;;;5114906;28;20063;-78
2023/09/28 11:59:15;;;;;;;12.98;3.75;;;;;;;;;;5115106;28;20043;-78
2023/09/28 12:01:41;;;;;;;10.23;3.72;;;;;;;;;;5115178;28;20044;-78
2023/09/28 12:04:09;;;;;;;11.98;4.05;;;;;;;;;;5114215;28;20407;-78
2023/09/28 12:06:35;;;;;;;14.98;3.90;;;;;;;;;;5114533;28;20584;-78
2023/09/28 12:09:02;;;;;;;16.50;4.10;;;;;;;;;;5114142;28;20429;-78
2023/09/28 12:11:28;;;;;;;10.90;3.50;;;;;;;;;;5114699;28;20043;-78
2023/09/28 12:13:54;;;;;;;14.25;3.85;;;;;;;;;;5114158;28;20499;-78
2023/09/28 12:16:22;;;;;;;17.10;4.28;;;;;;;;;;5114396;28;20074;-78
2023/09/28 12:18:49;;;;;;;13.15;3.67;;;;;;;;;;5113865;28;20118;-77
2023/09/28 12:21:15;;;;;;;15.73;4.18;;;;;;;;;;5114321;28;20126;-78
2023/09/28 12:23:41;;;;;;;13.07;3.72;;;;;;;;;;5114366;28;20047;-78
2023/09/28 12:26:07;;;;;;;15.95;4.15;;;;;;;;;;5114135;28;20457;-78
2023/09/28 12:28:33;;;;;;;10.93;3.47;;;;;;;;;;5113925;28;20044;-78
2023/09/28 12:30:59;;;;;;;11.60;3.85;;;;;;;;;;5114274;28;20054;-78
2023/09/28 12:33:25;;;;;;;10.85;3.28;;;;;;;;;;5114023;28;20051;-78
2023/09/28 12:35:53;;;;;;;17.90;4.18;;;;;;;;;;5114046;28;20352;-78
2023/09/28 12:38:19;;;;;;;10.88;3.47;;;;;;;;;;5112793;28;20475;-78
2023/09/28 12:40:45;;;;;;;12.77;3.67;;;;;;;;;;5113684;28;20404;-78
2023/09/28 12:43:11;;;;;;;14.27;4.03;;;;;;;;;;5113998;28;20495;-78
2023/09/28 12:45:38;;;;;;;12.77;4.05;;;;;;;;;;5114237;28;20040;-78
2023/09/28 12:48:05;;;;;;;13.38;3.95;;;;;;;;;;5113610;28;20555;-78
2023/09/28 12:50:32;;;;;;;13.50;4.45;;;;;;;;;;5114534;28;20047;-78
2023/09/28 12:52:58;;;;;;;14.43;3.80;;;;;;;;;;5110147;28;20040;-78
2023/09/28 12:55:24;;;;;;;11.82;4.20;;;;;;;;;;5104424;28;20047;-78
2023/09/28 12:57:51;;;;;;;12.85;4.40;;;;;;;;;;5127221;27;20043;-78
2023/09/28 13:00:17;;;;;;;10.73;3.55;;;;;;;;;;5113754;28;20060;-78
2023/09/28 13:02:46;;;;;;;12.50;3.78;;;;;;;;;;5113588;28;20040;-78
2023/09/28 13:05:13;;;;;;;14.95;4.43;;;;;;;;;;5102351;28;20076;-78
2023/09/28 13:07:40;;;;;;;17.60;3.78;;;;;;;;;;5110597;28;20048;-78
2023/09/28 13:10:07;;;;;;;14.90;3.33;;;;;;;;;;5103281;28;20040;-76
2023/09/28 13:12:34;;;;;;;25.73;3.60;;;;;;;;;;5105785;28;20047;-77
2023/09/28 13:15:00;;;;;;;10.85;3.63;;;;;;;;;;5102968;28;20050;-78
2023/09/28 13:17:30;;;;;;;15.70;4.15;;;;;;;;;;5112172;28;20032;-78
2023/09/28 13:19:56;;;;;;;12.50;3.60;;;;;;;;;;5100025;28;20040;-78
2023/09/28 13:22:23;;;;;;;13.18;3.88;;;;;;;;;;5109647;28;20047;-77
2023/09/28 13:24:49;;;;;;;16.15;3.75;;;;;;;;;;5103093;28;20475;-80
2023/09/28 13:27:17;;;;;;;12.57;3.70;;;;;;;;;;5107368;28;20044;-80
2023/09/28 13:29:45;;;;;;;15.35;3.60;;;;;;;;;;5105972;28;20047;-80
2023/09/28 13:32:15;;;;;;;11.00;3.92;;;;;;;;;;5100757;28;20048;-82
2023/09/28 13:34:42;;;;;;;12.23;3.42;;;;;;;;;;5108474;28;20486;-84
2023/09/28 13:37:10;;;;;;;18.05;4.07;;;;;;;;;;5114224;28;20452;-80
2023/09/28 13:39:36;;;;;;;16.65;3.85;;;;;;;;;;5116814;27;20063;-80
2023/09/28 13:42:06;;;;;;;13.32;3.72;;;;;;;;;;5100988;28;20047;-78
2023/09/28 13:44:35;;;;;;;16.95;4.40;;;;;;;;;;5100415;28;20105;-78
2023/09/28 13:47:03;;;;;;;16.58;4.07;;;;;;;;;;5111936;28;20525;-78
2023/09/28 13:49:29;;;;;;;15.63;3.97;;;;;;;;;;5103497;27;20050;-78
2023/09/28 13:51:57;;;;;;;15.77;4.10;;;;;;;;;;5102627;28;20044;-78
2023/09/28 13:54:24;;;;;;;17.08;4.18;;;;;;;;;;5106406;28;20044;-79
2023/09/28 13:56:51;;;;;;;15.55;4.15;;;;;;;;;;5101987;28;20391;-79
2023/09/28 13:59:18;;;;;;;10.65;3.50;;;;;;;;;;5112468;28;20122;-79
2023/09/28 14:01:46;;;;;;;12.65;3.97;;;;;;;;;;5100492;28;20040;-81
2023/09/28 14:04:12;;;;;;;16.00;3.72;;;;;;;;;;5105629;28;20051;-79
2023/09/28 14:06:40;;;;;;;14.32;4.40;;;;;;;;;;5102140;28;20052;-79
2023/09/28 14:09:10;;;;;;;13.85;3.83;;;;;;;;;;5114109;28;20044;-78
2023/09/28 14:11:37;;;;;;;12.40;3.83;;;;;;;;;;5106703;28;20100;-78
2023/09/28 14:14:03;;;;;;;13.85;3.72;;;;;;;;;;5114888;28;20071;-79
2023/09/28 14:16:32;;;;;;;14.88;4.10;;;;;;;;;;5105553;28;20584;-79
2023/09/28 14:18:58;;;;;;;11.40;3.33;;;;;;;;;;5094863;28;20036;-79
2023/09/28 14:21:25;;;;;;;12.80;3.47;;;;;;;;;;5113270;28;20047;-79
2023/09/28 14:23:52;;;;;;;12.48;3.70;;;;;;;;;;5114380;28;20126;-79
2023/09/28 14:26:19;;;;;;;13.50;3.60;;;;;;;;;;5115231;28;20448;-79
2023/09/28 14:28:45;;;;;;;13.48;3.65;;;;;;;;;;5097638;28;20044;-79
2023/09/28 14:31:11;;;;;;;13.85;3.53;;;;;;;;;;5095910;28;20047;-79